Galena, Nevada Weather observations

Data are for 10 minute period ending at time listed.
 Day   Time    Ave.   Ave.  Ave.  Vector   Max.   Total    Solar   
  of    of     Air    Rel.  Wind   Wind    Wind  Precip.   Rad.    
Year   Day     Temp.  Hum.  Speed  Dir.    Gust                    
2014   (PST)    F      %     mph   deg.    mph     in.     W/m2    
------------------------------------------------------------------- 
 233   12:00   80.0    19    6.0   299     18.0    3.93     908  
 233   13:00   82.0    18    6.0    54     17.0    3.93     911  
 233   14:00   82.0    17    5.0   343     31.0    3.93     849  
 233   15:00   80.0    20   12.0   177     24.0    3.93     753  
 233   16:00   79.0    19    8.0   242     24.0    3.93     608  
 233   17:00   78.0    19    7.0   257     21.0    3.93     414  
 233   18:00   75.0    19    8.0   230     21.0    3.93     220  
 233   19:00   70.0    27    5.0   274     21.0    3.93      25  
 233   20:00   67.0    29    3.0   135     15.0    3.93       0  
 233   21:00   65.0    27    3.0   284     13.0    3.93       0  
 233   22:00   60.0    37    3.0   241      8.0    3.93       0  
 233   23:00   58.0    43    1.0    32      8.0    3.93       0  
 234    0:00   56.0    47    4.0   331      6.0    3.93       0  
 234    1:00   56.0    45    3.0   303      9.0    3.93       0  
 234    2:00   55.0    44    7.0   336     11.0    3.93       0  
 234    3:00   53.0    43    7.0   323     10.0    3.93       0  
 234    4:00   54.0    44    5.0   315     10.0    3.93       0  
 234    5:00   54.0    45    5.0   334     12.0    3.93       0  
 234    6:00   57.0    43    3.0    42     14.0    3.93      11  
 234    7:00   64.0    32   16.0   154     30.0    3.93     143  
 234    8:00   68.0    27   21.0   180     34.0    3.93     342  
 234    9:00   69.0    23   17.0   201     36.0    3.93     540  
 234   10:00   72.0    22   15.0   211     35.0    3.93     714  
 234   11:00   73.0    22   19.0   199     41.0    3.93     848  

Return to Galena, Nevada graphs page.


Western Regional Climate Center,wrcc@dri.edu